Time;durP1;ratioP1;P1;durP2;ratioP2;P2;SDS_P1;SDS_P2;PMS_P1;PMS_P2;Temp;Humidity;BMP_temperature;BMP_pressure;BME280_temperature;BME280_humidity;BME280_pressure;Samples;Min_cycle;Max_cycle;Signal;HPM_P1;HPM_P2
2022/10/19 00:01:38;;;;;;;18.23;11.40;;;18.40;99.90;;;;;;4997517;28;20272;-67
2022/10/19 00:04:04;;;;;;;18.70;11.80;;;18.40;99.90;;;;;;4999993;28;20266;-66
2022/10/19 00:06:35;;;;;;;16.43;11.60;;;18.40;99.90;;;;;;5001560;28;20212;-66
2022/10/19 00:09:13;;;;;;;19.40;11.27;;;18.40;99.90;;;;;;5001541;28;20189;-66
2022/10/19 00:11:41;;;;;;;22.90;11.07;;;18.30;99.90;;;;;;5002494;28;20880;-66
2022/10/19 00:14:09;;;;;;;15.47;11.40;;;18.30;99.90;;;;;;4999156;28;20431;-66
2022/10/19 00:16:37;;;;;;;15.13;11.40;;;18.30;99.90;;;;;;4999948;28;20471;-66
2022/10/19 00:19:06;;;;;;;14.00;10.63;;;18.30;99.90;;;;;;5002556;28;20408;-66
2022/10/19 00:21:32;;;;;;;17.93;12.00;;;18.30;99.90;;;;;;5001156;28;20444;-66
2022/10/19 00:23:57;;;;;;;14.70;11.40;;;18.30;99.90;;;;;;4986816;28;20629;-66
2022/10/19 00:26:24;;;;;;;20.37;12.47;;;18.20;99.90;;;;;;5001202;28;20205;-66
2022/10/19 00:28:51;;;;;;;24.30;11.90;;;18.30;99.90;;;;;;5002682;28;20187;-66
2022/10/19 00:31:17;;;;;;;16.80;11.60;;;18.30;99.90;;;;;;5000389;28;20533;-67
2022/10/19 00:33:45;;;;;;;14.97;12.00;;;18.30;99.90;;;;;;5000112;28;20436;-67
2022/10/19 00:36:32;;;;;;;14.93;12.53;;;18.30;99.90;;;;;;4999800;28;20405;-66
2022/10/19 00:39:00;;;;;;;14.97;11.00;;;18.30;99.90;;;;;;4993065;28;20435;-66
2022/10/19 00:41:28;;;;;;;15.13;12.53;;;18.30;99.90;;;;;;4986248;28;20451;-67
2022/10/19 00:44:06;;;;;;;15.27;11.90;;;18.30;99.90;;;;;;4994802;28;20517;-66
2022/10/19 00:46:35;;;;;;;17.97;12.20;;;18.20;99.90;;;;;;4993987;28;20460;-65
2022/10/19 00:49:06;;;;;;;18.00;12.37;;;18.20;99.90;;;;;;5000721;28;20535;-65
2022/10/19 00:51:34;;;;;;;13.83;11.23;;;18.20;99.90;;;;;;4995521;28;20477;-68
2022/10/19 00:54:04;;;;;;;14.07;11.80;;;18.20;99.90;;;;;;4995196;28;20523;-65
2022/10/19 00:56:30;;;;;;;13.40;10.90;;;18.20;99.90;;;;;;4997461;28;20578;-65
2022/10/19 00:58:56;;;;;;;14.73;11.57;;;18.20;99.90;;;;;;4998920;28;20444;-66
2022/10/19 01:01:24;;;;;;;17.73;12.20;;;18.20;99.90;;;;;;4995091;28;20535;-67
2022/10/19 01:03:49;;;;;;;13.70;11.57;;;18.20;99.90;;;;;;4984853;28;21063;-67
2022/10/19 01:06:17;;;;;;;16.27;12.07;;;18.20;99.90;;;;;;4997429;28;20478;-66
2022/10/19 01:08:46;;;;;;;18.67;13.07;;;18.20;99.90;;;;;;4995012;28;20315;-66
2022/10/19 01:11:29;;;;;;;13.70;11.73;;;18.20;99.90;;;;;;4986050;28;20482;-67
2022/10/19 01:14:13;;;;;;;14.13;11.87;;;18.20;99.90;;;;;;4991430;28;20724;-67
2022/10/19 01:16:41;;;;;;;16.23;12.97;;;18.20;99.90;;;;;;4995661;28;20548;-67
2022/10/19 01:19:36;;;;;;;13.50;11.30;;;18.20;99.90;;;;;;4993614;28;20441;-66
2022/10/19 01:22:10;;;;;;;16.40;13.47;;;18.20;99.90;;;;;;4992342;28;20436;-66
2022/10/19 01:24:44;;;;;;;18.60;12.90;;;18.20;99.90;;;;;;4998914;28;20436;-67
2022/10/19 01:27:31;;;;;;;18.00;13.37;;;18.20;99.90;;;;;;4986295;28;20574;-66
2022/10/19 01:30:13;;;;;;;13.57;12.10;;;18.20;99.90;;;;;;4999361;28;20901;-66
2022/10/19 01:32:57;;;;;;;15.80;13.43;;;18.20;99.90;;;;;;4999094;28;20807;-66
2022/10/19 01:35:24;;;;;;;16.47;12.97;;;18.10;99.90;;;;;;5001911;28;20479;-67
2022/10/19 01:38:16;;;;;;;17.20;12.13;;;18.10;99.90;;;;;;5001089;28;20499;-66
2022/10/19 01:41:07;;;;;;;15.30;12.03;;;18.10;99.90;;;;;;4996713;28;20955;-69
2022/10/19 01:43:45;;;;;;;15.83;11.13;;;18.10;99.90;;;;;;4997944;28;20501;-66
2022/10/19 01:46:16;;;;;;;17.80;11.93;;;18.10;99.90;;;;;;4995439;28;20464;-66
2022/10/19 01:48:55;;;;;;;15.03;10.80;;;18.10;99.90;;;;;;4989028;28;20432;-66
2022/10/19 01:51:27;;;;;;;15.60;11.23;;;18.00;99.90;;;;;;4984115;28;20540;-66
2022/10/19 01:53:56;;;;;;;13.70;11.63;;;18.00;99.90;;;;;;4984167;28;20445;-66
2022/10/19 01:56:26;;;;;;;12.40;10.77;;;18.00;99.90;;;;;;4997329;28;20460;-66
2022/10/19 01:58:55;;;;;;;12.07;10.33;;;18.00;99.90;;;;;;4997426;28;20518;-66
2022/10/19 02:01:25;;;;;;;11.53;10.33;;;18.00;99.90;;;;;;5002325;28;20860;-66
2022/10/19 02:03:52;;;;;;;12.67;9.80;;;18.00;99.90;;;;;;5004168;28;20428;-68
2022/10/19 02:06:18;;;;;;;26.93;10.73;;;18.00;99.90;;;;;;4998596;28;20513;-68
2022/10/19 02:08:47;;;;;;;11.97;10.57;;;17.90;99.90;;;;;;5000160;28;20436;-67
2022/10/19 02:11:14;;;;;;;13.47;10.50;;;17.90;99.90;;;;;;5002544;28;20471;-67
2022/10/19 02:13:41;;;;;;;14.60;11.37;;;17.90;99.90;;;;;;5004068;28;20507;-67
2022/10/19 02:16:13;;;;;;;14.30;11.00;;;17.90;99.90;;;;;;5003579;28;20898;-67
2022/10/19 02:18:43;;;;;;;15.60;10.47;;;17.90;99.90;;;;;;4988592;28;20563;-67
2022/10/19 02:21:09;;;;;;;27.27;11.70;;;17.90;99.90;;;;;;4996468;28;20556;-67
2022/10/19 02:23:35;;;;;;;14.70;11.93;;;17.90;99.90;;;;;;4995039;28;21000;-66
2022/10/19 02:26:01;;;;;;;15.17;12.03;;;17.80;99.90;;;;;;4998973;28;20543;-66
2022/10/19 02:28:28;;;;;;;13.33;11.93;;;17.90;99.90;;;;;;4999304;28;21896;-66
2022/10/19 02:30:54;;;;;;;17.20;11.10;;;17.90;99.90;;;;;;4993896;28;20464;-67
2022/10/19 02:33:20;;;;;;;15.13;12.77;;;17.90;99.90;;;;;;4995214;28;20455;-66
2022/10/19 02:35:46;;;;;;;13.20;11.37;;;17.90;99.90;;;;;;4995524;28;20185;-66
2022/10/19 02:38:15;;;;;;;15.53;13.47;;;17.90;99.90;;;;;;4997074;28;20431;-67
2022/10/19 02:40:45;;;;;;;16.43;14.20;;;17.90;99.90;;;;;;5000048;28;20437;-66
2022/10/19 02:43:14;;;;;;;20.17;14.33;;;17.90;99.90;;;;;;4998780;28;20870;-66
2022/10/19 02:45:45;;;;;;;18.77;13.83;;;17.90;99.90;;;;;;4996806;28;20451;-66
2022/10/19 02:48:16;;;;;;;15.27;13.50;;;17.80;99.90;;;;;;4998421;28;20815;-66
2022/10/19 02:50:50;;;;;;;18.77;15.43;;;17.90;99.90;;;;;;4997264;28;20467;-66
2022/10/19 02:53:17;;;;;;;25.37;14.57;;;17.90;99.90;;;;;;4997326;28;20451;-66
2022/10/19 02:55:43;;;;;;;16.97;14.20;;;17.90;99.90;;;;;;4998520;28;20480;-66
2022/10/19 02:58:09;;;;;;;17.97;14.30;;;17.90;99.90;;;;;;4998292;28;20817;-66
2022/10/19 03:00:35;;;;;;;16.60;13.23;;;17.90;99.90;;;;;;4996105;28;20436;-66
2022/10/19 03:03:01;;;;;;;17.70;14.23;;;17.90;99.90;;;;;;4999014;28;20471;-66
2022/10/19 03:05:27;;;;;;;20.10;15.07;;;17.90;99.90;;;;;;4997282;28;20190;-69
2022/10/19 03:07:53;;;;;;;19.00;14.97;;;17.90;99.90;;;;;;4972748;28;20976;-69
2022/10/19 03:10:18;;;;;;;20.57;15.30;;;17.80;99.90;;;;;;4997457;28;20213;-66
2022/10/19 03:12:44;;;;;;;20.47;15.17;;;17.90;99.90;;;;;;4998499;28;20189;-68
2022/10/19 03:15:17;;;;;;;20.33;15.47;;;17.90;99.90;;;;;;4999361;28;20583;-68
2022/10/19 03:17:43;;;;;;;21.60;15.27;;;17.90;99.90;;;;;;4998477;28;20229;-68
2022/10/19 03:20:10;;;;;;;20.37;14.40;;;17.90;99.90;;;;;;5010618;28;20480;-67
2022/10/19 03:22:35;;;;;;;20.50;13.90;;;17.90;99.90;;;;;;4994967;28;20455;-67
2022/10/19 03:25:01;;;;;;;17.47;12.83;;;17.90;99.90;;;;;;4998909;28;21079;-67
2022/10/19 03:27:27;;;;;;;21.87;14.10;;;17.90;99.90;;;;;;4995867;28;20212;-68
2022/10/19 03:29:52;;;;;;;19.17;13.27;;;17.90;99.90;;;;;;4996112;28;20212;-68
2022/10/19 03:32:18;;;;;;;21.83;13.87;;;17.90;99.90;;;;;;4996152;28;20200;-68
2022/10/19 03:34:43;;;;;;;20.97;16.07;;;17.80;99.90;;;;;;5000324;28;20192;-68
2022/10/19 03:37:09;;;;;;;19.90;13.80;;;17.80;99.90;;;;;;5000243;28;20201;-67
2022/10/19 03:39:34;;;;;;;22.23;13.30;;;17.80;99.90;;;;;;4995560;28;20243;-67
2022/10/19 03:42:00;;;;;;;19.07;14.03;;;17.80;99.90;;;;;;4999014;28;20193;-67
2022/10/19 03:44:26;;;;;;;19.30;14.07;;;17.80;99.90;;;;;;4997121;28;20225;-66
2022/10/19 03:46:51;;;;;;;19.33;13.80;;;17.80;99.90;;;;;;4976440;28;20213;-67
2022/10/19 03:49:17;;;;;;;22.07;14.60;;;17.80;99.90;;;;;;4997558;28;21260;-67
2022/10/19 03:51:43;;;;;;;18.97;13.80;;;17.80;99.90;;;;;;4996755;28;20684;-67
2022/10/19 03:54:13;;;;;;;18.80;13.27;;;17.80;99.90;;;;;;4998565;28;20264;-67
2022/10/19 03:56:39;;;;;;;22.10;14.87;;;17.80;99.90;;;;;;4996748;28;20263;-67
2022/10/19 03:59:05;;;;;;;23.27;15.17;;;17.80;99.90;;;;;;4996263;28;20417;-66
2022/10/19 04:01:38;;;;;;;16.00;11.87;;;17.80;99.90;;;;;;4994591;28;20830;-67
2022/10/19 04:04:06;;;;;;;22.80;14.37;;;17.80;99.90;;;;;;4995381;28;20439;-67
2022/10/19 04:06:35;;;;;;;16.17;13.00;;;17.80;99.90;;;;;;4993712;28;20460;-67
2022/10/19 04:09:01;;;;;;;16.93;12.37;;;17.70;99.90;;;;;;4996186;28;20555;-67
2022/10/19 04:11:29;;;;;;;19.37;13.10;;;17.70;99.90;;;;;;4993942;28;20487;-67
2022/10/19 04:13:56;;;;;;;16.70;12.23;;;17.70;99.90;;;;;;4997500;28;20444;-67
2022/10/19 04:16:23;;;;;;;16.53;12.43;;;17.70;99.90;;;;;;4975259;28;20510;-66
2022/10/19 04:18:49;;;;;;;19.10;12.73;;;17.70;99.90;;;;;;4997345;28;20432;-67
2022/10/19 04:21:25;;;;;;;18.13;12.00;;;17.70;99.90;;;;;;4979168;28;20535;-65
2022/10/19 04:23:52;;;;;;;18.20;12.50;;;17.70;99.90;;;;;;4996250;28;20451;-67
2022/10/19 04:26:19;;;;;;;16.87;12.70;;;17.70;99.90;;;;;;4994993;28;20865;-67
2022/10/19 04:28:45;;;;;;;20.10;12.13;;;17.70;99.90;;;;;;4992883;28;20440;-67
2022/10/19 04:31:11;;;;;;;18.63;12.50;;;17.70;99.90;;;;;;4979986;28;20833;-68
2022/10/19 04:33:37;;;;;;;18.10;13.03;;;17.70;99.90;;;;;;4977628;28;20463;-66
2022/10/19 04:36:05;;;;;;;25.00;13.93;;;17.70;99.90;;;;;;4993320;28;20551;-66
2022/10/19 04:38:31;;;;;;;18.70;14.07;;;17.60;99.90;;;;;;4979400;28;20208;-67
2022/10/19 04:41:12;;;;;;;21.30;13.73;;;17.60;99.90;;;;;;4995197;28;20535;-65
2022/10/19 04:43:38;;;;;;;25.43;13.87;;;17.60;99.90;;;;;;4981344;28;20558;-67
2022/10/19 04:46:17;;;;;;;22.43;13.40;;;17.60;99.90;;;;;;4983962;28;20586;-67
2022/10/19 04:48:43;;;;;;;21.33;13.30;;;17.60;99.90;;;;;;4995660;28;20221;-68
2022/10/19 04:51:10;;;;;;;25.33;14.37;;;17.60;99.90;;;;;;4994681;28;20567;-67
2022/10/19 04:53:37;;;;;;;18.63;14.50;;;17.60;99.90;;;;;;4998605;28;20857;-68
2022/10/19 04:56:08;;;;;;;23.17;14.93;;;17.60;99.90;;;;;;4993076;28;20456;-67
2022/10/19 04:58:34;;;;;;;24.20;14.03;;;17.50;99.90;;;;;;4999190;28;20796;-68
2022/10/19 05:01:07;;;;;;;23.97;15.13;;;17.50;99.90;;;;;;4999852;28;20857;-66
2022/10/19 05:03:32;;;;;;;22.17;14.80;;;17.50;99.90;;;;;;4995008;28;20443;-67
2022/10/19 05:05:58;;;;;;;25.03;15.20;;;17.50;99.90;;;;;;4994806;28;20459;-67
2022/10/19 05:08:24;;;;;;;23.53;14.70;;;17.50;99.90;;;;;;4997429;28;20278;-67
2022/10/19 05:10:49;;;;;;;24.40;14.63;;;17.50;99.90;;;;;;4997056;28;20214;-67
2022/10/19 05:13:15;;;;;;;20.17;14.07;;;17.50;99.90;;;;;;4992948;28;20209;-67
2022/10/19 05:15:40;;;;;;;19.93;13.90;;;17.50;99.90;;;;;;4996648;28;20252;-68
2022/10/19 05:18:06;;;;;;;18.47;13.13;;;17.50;99.90;;;;;;4994891;28;20228;-67
2022/10/19 05:20:31;;;;;;;19.30;14.20;;;17.50;99.90;;;;;;4993646;28;20197;-67
2022/10/19 05:22:57;;;;;;;25.43;15.77;;;17.50;99.90;;;;;;4992320;28;20274;-67
2022/10/19 05:25:23;;;;;;;29.57;16.20;;;17.50;99.90;;;;;;4996271;28;20189;-67
2022/10/19 05:27:52;;;;;;;23.73;16.97;;;17.40;99.90;;;;;;4982489;28;20297;-68
2022/10/19 05:30:20;;;;;;;23.53;15.37;;;17.40;99.90;;;;;;4993298;28;20880;-68
2022/10/19 05:32:46;;;;;;;25.17;15.50;;;17.40;99.90;;;;;;4999321;28;20535;-69
2022/10/19 05:35:12;;;;;;;39.70;16.83;;;17.40;99.90;;;;;;4987730;28;20432;-68
2022/10/19 05:37:38;;;;;;;28.67;15.60;;;17.40;99.90;;;;;;4981140;28;20594;-68
2022/10/19 05:40:04;;;;;;;23.80;16.00;;;17.40;99.90;;;;;;4997847;28;20785;-66
2022/10/19 05:42:29;;;;;;;30.10;15.77;;;17.40;99.90;;;;;;4998306;28;20666;-69
2022/10/19 05:44:55;;;;;;;26.47;15.47;;;17.50;99.90;;;;;;5001371;28;20431;-69
2022/10/19 05:47:20;;;;;;;26.13;16.47;;;17.50;99.90;;;;;;4999261;28;20682;-69
2022/10/19 05:49:47;;;;;;;26.77;16.87;;;17.50;99.90;;;;;;5001417;28;20185;-68
2022/10/19 05:52:12;;;;;;;24.40;16.47;;;17.50;99.90;;;;;;5000219;28;20232;-68
2022/10/19 05:54:38;;;;;;;21.20;14.77;;;17.50;99.90;;;;;;4997430;28;20525;-68
2022/10/19 05:57:03;;;;;;;23.83;14.97;;;17.50;99.90;;;;;;4997941;28;20244;-68
2022/10/19 05:59:29;;;;;;;22.97;15.20;;;17.50;99.90;;;;;;4998911;28;20185;-68
2022/10/19 06:01:55;;;;;;;20.20;15.03;;;17.50;99.90;;;;;;4997016;28;20239;-68
2022/10/19 06:04:20;;;;;;;22.00;15.40;;;17.50;99.90;;;;;;4996774;28;20453;-68
2022/10/19 06:06:46;;;;;;;20.57;15.43;;;17.50;99.90;;;;;;4999711;28;20217;-68
2022/10/19 06:09:12;;;;;;;18.20;14.80;;;17.50;99.90;;;;;;4993544;28;20198;-68
2022/10/19 06:11:40;;;;;;;20.17;14.37;;;17.50;99.90;;;;;;4993933;28;20271;-68
2022/10/19 06:14:12;;;;;;;22.53;14.53;;;17.50;99.90;;;;;;4996301;28;21200;-68
2022/10/19 06:16:38;;;;;;;19.73;14.20;;;17.50;99.90;;;;;;4995849;28;20473;-68
2022/10/19 06:19:04;;;;;;;22.17;14.27;;;17.50;99.90;;;;;;4996278;28;20500;-67
2022/10/19 06:21:32;;;;;;;20.67;14.33;;;17.50;99.90;;;;;;4988867;28;20216;-67
2022/10/19 06:24:03;;;;;;;18.83;13.60;;;17.50;99.90;;;;;;4996430;28;20563;-68
2022/10/19 06:26:30;;;;;;;17.63;12.97;;;17.50;99.90;;;;;;4998096;28;20476;-67
2022/10/19 06:28:59;;;;;;;19.87;14.40;;;17.50;99.90;;;;;;4994197;28;20439;-68
2022/10/19 06:31:25;;;;;;;17.90;12.90;;;17.50;99.90;;;;;;4994892;28;20465;-68
2022/10/19 06:33:51;;;;;;;18.77;14.13;;;17.50;99.90;;;;;;4997509;28;20448;-69
2022/10/19 06:36:23;;;;;;;20.30;13.83;;;17.50;99.90;;;;;;4992964;28;20472;-68
2022/10/19 06:38:48;;;;;;;26.20;13.17;;;17.50;99.90;;;;;;4993988;28;20239;-68
2022/10/19 06:41:14;;;;;;;19.67;13.13;;;17.50;99.90;;;;;;4997867;28;20805;-68
2022/10/19 06:43:42;;;;;;;18.80;13.40;;;17.60;99.90;;;;;;4995525;28;20626;-68
2022/10/19 06:46:11;;;;;;;22.17;14.40;;;17.60;99.90;;;;;;4996020;28;20621;-68
2022/10/19 06:48:37;;;;;;;22.70;13.70;;;17.60;99.90;;;;;;4999202;28;20452;-69
2022/10/19 06:51:05;;;;;;;18.33;13.10;;;17.70;99.90;;;;;;4995972;28;20464;-68
2022/10/19 06:53:33;;;;;;;22.20;14.10;;;17.70;99.90;;;;;;4991483;28;20491;-68
2022/10/19 06:55:59;;;;;;;18.20;13.40;;;17.70;99.90;;;;;;4995437;28;20443;-68
2022/10/19 06:58:25;;;;;;;17.40;11.73;;;17.70;99.90;;;;;;4994445;28;21056;-70
2022/10/19 07:00:58;;;;;;;18.97;12.93;;;17.80;99.90;;;;;;4990206;28;21087;-69
2022/10/19 07:03:25;;;;;;;19.47;12.37;;;17.80;99.90;;;;;;4983980;28;20289;-69
2022/10/19 07:05:58;;;;;;;21.13;12.67;;;17.80;99.90;;;;;;4998629;28;21023;-70
2022/10/19 07:08:26;;;;;;;15.70;11.70;;;17.90;99.90;;;;;;4992400;28;20432;-69
2022/10/19 07:10:54;;;;;;;22.10;12.60;;;17.90;99.90;;;;;;4996970;28;20698;-70
2022/10/19 07:13:20;;;;;;;17.40;12.37;;;17.90;99.90;;;;;;4995927;28;20439;-71
2022/10/19 07:15:46;;;;;;;18.10;12.77;;;18.00;99.90;;;;;;4992256;28;20440;-68
2022/10/19 07:18:11;;;;;;;17.73;12.60;;;18.00;99.90;;;;;;4969665;28;20448;-71
2022/10/19 07:20:37;;;;;;;18.63;14.50;;;18.00;99.90;;;;;;4995407;28;20186;-71
2022/10/19 07:23:03;;;;;;;15.43;11.17;;;18.00;99.90;;;;;;4994093;28;20193;-69
2022/10/19 07:25:29;;;;;;;16.33;11.43;;;18.10;99.90;;;;;;4998052;28;20702;-69
2022/10/19 07:27:55;;;;;;;22.57;13.60;;;18.10;99.90;;;;;;4996771;28;20574;-69
2022/10/19 07:30:21;;;;;;;19.00;12.20;;;18.10;99.90;;;;;;4996030;28;20638;-68
2022/10/19 07:32:46;;;;;;;17.57;12.10;;;18.10;99.90;;;;;;4998503;28;20554;-68
2022/10/19 07:35:13;;;;;;;18.13;12.50;;;18.20;99.90;;;;;;4997805;28;20733;-68
2022/10/19 07:37:38;;;;;;;16.27;10.67;;;18.20;99.90;;;;;;4997215;28;20204;-69
2022/10/19 07:40:04;;;;;;;16.40;11.10;;;18.20;99.90;;;;;;4997659;28;20442;-67
2022/10/19 07:42:30;;;;;;;15.20;11.53;;;18.30;99.90;;;;;;4996065;28;20178;-69
2022/10/19 07:44:55;;;;;;;14.80;10.80;;;18.30;99.90;;;;;;4995579;28;20467;-69
2022/10/19 07:47:21;;;;;;;19.40;11.03;;;18.30;99.90;;;;;;4999626;28;20208;-69
2022/10/19 07:49:46;;;;;;;15.97;11.43;;;18.30;99.90;;;;;;4982931;28;20209;-68
2022/10/19 07:52:12;;;;;;;17.77;12.03;;;18.30;99.90;;;;;;4984333;28;20217;-67
2022/10/19 07:54:38;;;;;;;19.20;9.60;;;18.30;99.90;;;;;;4980156;28;20184;-67
2022/10/19 07:57:03;;;;;;;14.47;10.80;;;18.30;99.90;;;;;;4996601;28;20197;-68
2022/10/19 07:59:29;;;;;;;16.67;11.67;;;18.30;99.90;;;;;;4990913;28;20240;-68
2022/10/19 08:01:55;;;;;;;15.43;11.80;;;18.30;99.90;;;;;;4998598;28;20200;-68
2022/10/19 08:04:21;;;;;;;25.40;12.80;;;18.30;99.90;;;;;;4992709;28;20239;-68
2022/10/19 08:06:47;;;;;;;16.20;11.27;;;18.30;99.90;;;;;;4982693;28;20452;-68
2022/10/19 08:09:13;;;;;;;16.07;10.90;;;18.30;99.90;;;;;;4993697;28;20220;-68
2022/10/19 08:11:39;;;;;;;18.60;12.10;;;18.30;99.90;;;;;;4993209;28;20217;-69
2022/10/19 08:14:04;;;;;;;19.00;11.73;;;18.30;99.90;;;;;;4999438;28;20431;-69
2022/10/19 08:16:36;;;;;;;16.43;12.00;;;18.30;99.90;;;;;;4995186;28;20217;-69
2022/10/19 08:19:08;;;;;;;15.43;12.07;;;18.40;99.90;;;;;;4992146;28;20189;-67
2022/10/19 08:21:35;;;;;;;15.53;11.87;;;18.40;99.90;;;;;;4991258;28;20420;-70
2022/10/19 08:24:01;;;;;;;16.87;12.20;;;18.40;99.90;;;;;;4991237;28;20463;-69
2022/10/19 08:26:31;;;;;;;17.63;12.63;;;18.50;99.90;;;;;;4990932;28;20467;-66
2022/10/19 08:29:14;;;;;;;15.03;12.30;;;18.50;99.90;;;;;;4995534;28;20195;-67
2022/10/19 08:31:41;;;;;;;13.83;11.10;;;18.60;99.90;;;;;;4991786;28;21054;-69
2022/10/19 08:34:11;;;;;;;15.03;11.20;;;18.60;99.90;;;;;;4994512;28;20468;-69
2022/10/19 08:36:36;;;;;;;16.50;12.37;;;18.60;99.90;;;;;;4993067;28;20534;-68
2022/10/19 08:39:04;;;;;;;15.70;13.00;;;18.70;99.90;;;;;;4986692;28;20464;-69
2022/10/19 08:41:46;;;;;;;17.03;12.63;;;18.70;99.90;;;;;;4997975;28;20720;-69
2022/10/19 08:44:45;;;;;;;16.60;12.93;;;18.70;99.90;;;;;;4981540;28;20431;-69
2022/10/19 08:47:37;;;;;;;13.63;11.23;;;18.80;99.90;;;;;;4998826;28;20463;-69
2022/10/19 08:50:15;;;;;;;12.70;10.77;;;18.90;99.90;;;;;;4993450;28;21111;-69
2022/10/19 08:52:42;;;;;;;13.73;10.90;;;18.90;99.90;;;;;;4996102;28;20810;-68
2022/10/19 08:55:12;;;;;;;14.07;11.10;;;18.90;99.90;;;;;;4995394;28;20445;-69
2022/10/19 08:57:49;;;;;;;14.10;11.83;;;18.90;99.90;;;;;;5001408;28;20447;-68
2022/10/19 09:00:39;;;;;;;17.80;11.40;;;18.90;99.90;;;;;;4995801;28;20431;-69
2022/10/19 09:03:31;;;;;;;12.53;9.20;;;18.90;99.90;;;;;;4997676;28;20992;-68
2022/10/19 09:06:22;;;;;;;12.63;9.93;;;18.90;99.90;;;;;;5003495;28;20706;-69
2022/10/19 09:08:53;;;;;;;13.03;11.17;;;18.80;99.90;;;;;;4985194;28;20433;-69
2022/10/19 09:11:27;;;;;;;13.80;10.13;;;18.80;99.90;;;;;;4996845;28;20854;-68
2022/10/19 09:14:21;;;;;;;18.20;11.80;;;18.90;99.90;;;;;;5000885;28;20547;-68
2022/10/19 09:16:47;;;;;;;14.77;11.20;;;18.90;99.90;;;;;;4994433;28;20511;-68
2022/10/19 09:19:24;;;;;;;15.50;10.43;;;18.80;99.90;;;;;;4995472;28;20702;-70
2022/10/19 09:22:16;;;;;;;11.80;10.10;;;18.80;99.90;;;;;;4996738;28;20282;-71
2022/10/19 09:24:54;;;;;;;15.93;9.57;;;18.80;99.90;;;;;;4998781;28;21020;-68
2022/10/19 09:27:22;;;;;;;11.13;9.27;;;18.90;99.90;;;;;;4982036;28;20464;-68
2022/10/19 09:29:54;;;;;;;15.33;10.70;;;18.90;99.90;;;;;;5001177;28;20452;-68
2022/10/19 09:32:31;;;;;;;10.77;9.67;;;19.00;99.90;;;;;;4997791;28;20467;-70
2022/10/19 09:35:13;;;;;;;12.00;9.23;;;19.10;99.90;;;;;;4997215;28;20423;-69
2022/10/19 09:37:43;;;;;;;18.03;9.47;;;19.10;99.90;;;;;;4996176;28;20514;-68
2022/10/19 09:40:25;;;;;;;11.67;9.80;;;19.20;99.90;;;;;;4997181;28;21163;-68
2022/10/19 09:42:55;;;;;;;15.13;10.00;;;19.20;99.90;;;;;;4995065;28;20464;-69
2022/10/19 09:45:37;;;;;;;14.93;9.57;;;19.20;99.90;;;;;;4995190;28;20568;-67
2022/10/19 09:48:12;;;;;;;16.70;10.93;;;19.30;99.90;;;;;;4998220;28;20447;-68
2022/10/19 09:50:43;;;;;;;13.20;10.67;;;19.20;99.90;;;;;;4997661;28;20467;-67
2022/10/19 09:53:17;;;;;;;11.80;9.53;;;19.20;99.90;;;;;;4995805;28;20435;-68
2022/10/19 09:55:46;;;;;;;13.60;10.90;;;19.20;99.90;;;;;;4994506;28;20438;-67
2022/10/19 09:58:12;;;;;;;11.07;9.20;;;19.20;99.90;;;;;;4995596;28;20893;-68
2022/10/19 10:00:43;;;;;;;10.43;9.33;;;19.10;99.90;;;;;;4992502;28;20551;-70
2022/10/19 10:03:27;;;;;;;12.60;9.30;;;19.10;99.90;;;;;;4995269;28;20666;-69
2022/10/19 10:05:55;;;;;;;10.17;8.33;;;19.10;99.90;;;;;;4997113;28;20495;-68
2022/10/19 10:08:28;;;;;;;16.23;11.10;;;19.00;99.90;;;;;;4997225;28;20436;-69
2022/10/19 10:11:09;;;;;;;10.77;9.60;;;19.00;99.90;;;;;;4993579;28;20463;-69
2022/10/19 10:13:40;;;;;;;17.33;9.50;;;19.00;99.90;;;;;;4994099;28;20479;-68
2022/10/19 10:16:13;;;;;;;14.03;9.90;;;19.00;99.90;;;;;;4995396;28;20468;-69
2022/10/19 10:19:05;;;;;;;11.20;9.47;;;19.00;99.90;;;;;;4995561;28;20471;-68
2022/10/19 10:21:34;;;;;;;10.87;9.70;;;19.00;99.90;;;;;;4996168;28;20508;-67
2022/10/19 10:24:15;;;;;;;11.27;10.10;;;19.10;99.90;;;;;;4998449;28;20508;-67
2022/10/19 10:26:47;;;;;;;11.60;10.03;;;19.10;99.90;;;;;;4996302;28;20462;-67
2022/10/19 10:29:27;;;;;;;11.10;9.90;;;19.10;99.90;;;;;;4999226;28;20455;-67
2022/10/19 10:32:16;;;;;;;10.77;9.67;;;19.10;99.90;;;;;;4997346;28;20560;-68
2022/10/19 10:34:45;;;;;;;13.50;9.40;;;19.20;99.90;;;;;;4996870;28;20995;-70
2022/10/19 10:37:21;;;;;;;13.90;10.40;;;19.30;99.90;;;;;;5000886;28;20458;-69
2022/10/19 10:39:52;;;;;;;14.90;10.27;;;19.40;99.90;;;;;;4994648;28;20451;-68
2022/10/19 10:42:27;;;;;;;10.10;8.97;;;19.50;99.90;;;;;;4991796;28;20441;-68
2022/10/19 10:44:55;;;;;;;9.47;8.03;;;19.50;99.90;;;;;;4996121;28;20443;-68
2022/10/19 10:47:21;;;;;;;11.63;9.60;;;19.60;99.90;;;;;;4994956;28;20515;-68
2022/10/19 10:50:20;;;;;;;10.77;8.63;;;19.70;99.90;;;;;;4998202;28;20507;-68
2022/10/19 10:53:00;;;;;;;12.13;8.30;;;19.80;99.90;;;;;;4993964;28;20458;-68
2022/10/19 10:55:27;;;;;;;10.77;8.67;;;19.90;99.90;;;;;;4995476;28;20800;-69
2022/10/19 10:58:09;;;;;;;9.40;8.47;;;20.00;99.90;;;;;;4995570;28;21038;-68
2022/10/19 11:00:39;;;;;;;11.47;8.30;;;20.00;99.90;;;;;;4994607;28;20442;-69
2022/10/19 11:03:23;;;;;;;14.73;8.63;;;20.10;99.90;;;;;;4996810;28;20475;-67
2022/10/19 11:06:01;;;;;;;9.03;7.67;;;20.30;99.90;;;;;;4994552;28;20472;-69
2022/10/19 11:08:47;;;;;;;11.40;7.30;;;20.50;99.90;;;;;;4997390;28;20463;-68
2022/10/19 11:11:18;;;;;;;10.20;7.80;;;20.60;99.90;;;;;;4996277;28;20460;-69
2022/10/19 11:14:14;;;;;;;10.00;7.57;;;20.80;99.90;;;;;;4992613;28;20862;-68
2022/10/19 11:16:43;;;;;;;7.93;7.10;;;20.90;99.90;;;;;;4988684;28;20542;-69
2022/10/19 11:19:32;;;;;;;9.70;7.10;;;21.10;99.90;;;;;;4992079;28;20523;-69
2022/10/19 11:22:19;;;;;;;7.40;6.70;;;21.20;99.90;;;;;;4986231;28;20427;-69
2022/10/19 11:25:24;;;;;;;10.20;6.90;;;21.30;99.90;;;;;;4991811;28;20536;-68
2022/10/19 11:28:28;;;;;;;7.87;5.90;;;21.20;99.90;;;;;;4990521;28;20463;-68
2022/10/19 11:31:12;;;;;;;8.37;6.90;;;21.20;99.90;;;;;;4978232;28;20989;-68
2022/10/19 11:33:37;;;;;;;10.27;5.40;;;21.30;99.90;;;;;;4994972;28;20436;-68
2022/10/19 11:36:23;;;;;;;7.57;5.53;;;21.40;99.90;;;;;;4993619;28;20460;-68
2022/10/19 11:39:28;;;;;;;6.83;6.00;;;21.30;99.90;;;;;;4990287;28;20675;-68
2022/10/19 11:42:05;;;;;;;7.17;5.70;;;21.40;99.90;;;;;;5011063;28;20454;-68
2022/10/19 11:45:15;;;;;;;7.80;6.37;;;21.50;99.90;;;;;;4992020;28;20515;-68
2022/10/19 11:48:08;;;;;;;7.37;6.23;;;21.50;99.90;;;;;;4966510;28;21074;-68
2022/10/19 11:50:42;;;;;;;7.93;5.43;;;21.50;99.90;;;;;;4994740;28;20774;-68
2022/10/19 11:53:28;;;;;;;6.43;5.20;;;21.60;99.90;;;;;;4992268;28;20818;-68
2022/10/19 11:56:06;;;;;;;9.40;5.30;;;21.50;99.90;;;;;;4992832;28;20459;-68
2022/10/19 11:58:57;;;;;;;9.40;5.43;;;21.50;99.90;;;;;;4989476;28;20453;-68
2022/10/19 12:01:47;;;;;;;11.90;5.57;;;21.60;99.90;;;;;;4989952;28;20433;-68
2022/10/19 12:04:37;;;;;;;5.20;4.70;;;21.50;99.90;;;;;;4992630;28;21056;-68
2022/10/19 12:07:02;;;;;;;8.50;4.50;;;21.50;99.90;;;;;;4990873;28;20509;-68
2022/10/19 12:09:28;;;;;;;7.53;4.57;;;21.50;99.90;;;;;;4990609;28;20527;-68
2022/10/19 12:12:22;;;;;;;5.30;3.97;;;21.40;99.90;;;;;;4993849;28;20236;-68
2022/10/19 12:14:52;;;;;;;10.60;4.67;;;21.40;99.90;;;;;;4988905;28;20181;-67
2022/10/19 12:17:28;;;;;;;10.60;4.47;;;21.50;99.90;;;;;;4991740;28;20510;-68
2022/10/19 12:20:00;;;;;;;10.43;4.73;;;21.50;99.90;;;;;;4994314;28;20458;-67
2022/10/19 12:22:28;;;;;;;5.63;3.93;;;21.50;99.90;;;;;;4995447;28;20515;-68
2022/10/19 12:24:56;;;;;;;6.30;3.87;;;21.30;99.90;;;;;;4994590;28;20534;-69
2022/10/19 12:27:37;;;;;;;4.03;3.63;;;21.30;99.90;;;;;;4988707;28;20550;-68
2022/10/19 12:30:16;;;;;;;5.70;4.17;;;21.20;99.90;;;;;;4994011;28;20420;-69
2022/10/19 12:32:54;;;;;;;6.00;4.23;;;21.20;99.90;;;;;;4988762;28;20879;-69
2022/10/19 12:35:45;;;;;;;4.93;3.93;;;21.20;99.90;;;;;;4992490;28;20709;-69
2022/10/19 12:38:31;;;;;;;3.60;3.30;;;21.10;99.90;;;;;;4993868;28;20436;-68
2022/10/19 12:41:09;;;;;;;4.40;3.43;;;21.00;99.90;;;;;;4992705;28;20448;-69
2022/10/19 12:43:39;;;;;;;5.30;3.17;;;21.00;99.90;;;;;;4991258;28;20423;-69
2022/10/19 12:46:34;;;;;;;4.70;3.10;;;21.00;99.90;;;;;;4995827;28;21044;-69
2022/10/19 12:49:37;;;;;;;4.83;3.00;;;21.00;99.90;;;;;;4991800;28;20440;-70
2022/10/19 12:52:06;;;;;;;3.47;2.67;;;21.00;99.90;;;;;;4991171;28;20555;-70
2022/10/19 12:54:35;;;;;;;3.73;3.30;;;21.00;99.90;;;;;;4995599;28;20419;-70